Time;durP1;ratioP1;P1;durP2;ratioP2;P2;SDS_P1;SDS_P2;PMS_P1;PMS_P2;Temp;Humidity;BMP_temperature;BMP_pressure;BME280_temperature;BME280_humidity;BME280_pressure;Samples;Min_cycle;Max_cycle;Signal;HPM_P1;HPM_P2
2021/12/21 00:01:08;;;;;;;47.65;17.23;;;;;;;-1.23;100.00;102427.56;4993640;28;20350;-71
2021/12/21 00:03:34;;;;;;;44.95;17.38;;;;;;;-1.23;100.00;102422.28;5008746;28;20045;-71
2021/12/21 00:05:59;;;;;;;41.58;16.55;;;;;;;-1.29;100.00;102430.72;4994396;28;20493;-71
2021/12/21 00:08:30;;;;;;;46.50;16.67;;;;;;;-1.44;100.00;102417.88;4994387;28;20496;-70
2021/12/21 00:10:59;;;;;;;36.95;16.02;;;;;;;-1.36;100.00;102429.56;4997523;28;20532;-71
2021/12/21 00:13:40;;;;;;;38.95;17.10;;;;;;;-1.34;100.00;102435.53;4993267;28;20033;-71
2021/12/21 00:19:10;;;;;;;42.33;16.63;;;;;;;-1.41;100.00;102430.75;4998177;28;20429;-71
2021/12/21 00:21:40;;;;;;;46.88;17.45;;;;;;;-1.55;100.00;102415.31;4980775;28;20747;-71
2021/12/21 00:24:20;;;;;;;46.25;17.10;;;;;;;-1.64;100.00;102418.66;4993711;28;20047;-71
2021/12/21 00:26:46;;;;;;;41.75;16.38;;;;;;;-1.71;100.00;102422.78;4993538;28;20038;-70
2021/12/21 00:29:14;;;;;;;39.97;16.73;;;;;;;-1.79;100.00;102422.59;4993170;28;20313;-71
2021/12/21 00:31:40;;;;;;;48.08;16.55;;;;;;;-1.82;100.00;102428.06;4993102;28;20168;-70
2021/12/21 00:34:09;;;;;;;49.47;16.92;;;;;;;-1.89;100.00;102426.91;4992773;28;20098;-70
2021/12/21 00:36:38;;;;;;;39.85;16.10;;;;;;;-1.95;100.00;102424.78;4992994;28;20059;-71
2021/12/21 00:39:07;;;;;;;45.17;15.02;;;;;;;-2.03;100.00;102428.88;4993568;28;20198;-71
2021/12/21 00:41:33;;;;;;;39.35;15.38;;;;;;;-2.07;100.00;102430.06;4982443;28;20041;-71
2021/12/21 00:44:04;;;;;;;36.20;15.55;;;;;;;-2.13;100.00;102437.59;4985105;28;20770;-72
2021/12/21 00:46:32;;;;;;;48.03;15.38;;;;;;;-2.22;100.00;102433.91;4993191;28;20041;-70
2021/12/21 00:49:12;;;;;;;32.92;15.40;;;;;;;-2.28;100.00;102431.81;4994944;28;20114;-71
2021/12/21 00:51:38;;;;;;;38.50;15.23;;;;;;;-2.32;100.00;102422.47;4992624;28;20767;-70
2021/12/21 00:54:06;;;;;;;36.03;15.82;;;;;;;-2.33;100.00;102426.06;4987204;28;20091;-70
2021/12/21 00:56:33;;;;;;;39.25;15.45;;;;;;;-2.40;100.00;102407.31;5007364;28;20145;-70
2021/12/21 00:58:59;;;;;;;36.77;13.90;;;;;;;-2.37;100.00;102411.47;4992136;28;20037;-70
2021/12/21 01:01:24;;;;;;;39.17;15.40;;;;;;;-2.37;100.00;102419.34;4992913;28;20124;-70
2021/12/21 01:03:54;;;;;;;35.30;13.97;;;;;;;-2.39;100.00;102421.28;4991390;28;20037;-70
2021/12/21 01:06:38;;;;;;;33.17;14.23;;;;;;;-2.45;100.00;102419.13;4992258;28;20144;-70
2021/12/21 01:11:44;;;;;;;39.92;14.98;;;;;;;-2.47;100.00;102424.50;4992916;28;20095;-70
2021/12/21 01:19:31;;;;;;;45.30;16.50;;;;;;;-2.37;100.00;102416.72;4990486;28;20034;-70
2021/12/21 01:22:17;;;;;;;46.78;16.77;;;;;;;-2.41;100.00;102404.81;4991478;28;20147;-70
2021/12/21 01:25:22;;;;;;;33.73;15.20;;;;;;;-2.42;100.00;102408.41;4991577;28;20038;-70
2021/12/21 01:30:36;;;;;;;40.05;16.38;;;;;;;-2.36;100.00;102392.16;4990980;28;20049;-69
2021/12/21 01:33:19;;;;;;;43.67;15.73;;;;;;;-2.37;100.00;102393.06;4996623;28;20069;-70
2021/12/21 01:35:50;;;;;;;55.87;18.40;;;;;;;-2.14;100.00;102389.44;4992968;28;20045;-70
2021/12/21 01:41:26;;;;;;;44.13;17.77;;;;;;;-1.95;100.00;102385.34;5005988;28;20072;-76
2021/12/21 01:43:47;;;;;;;45.88;18.13;;;;;;;-1.91;100.00;102370.97;4992169;28;20095;-76
2021/12/21 01:51:41;;;;;;;41.50;15.50;;;;;;;-1.82;100.00;102370.19;4992006;28;20040;-76
2021/12/21 01:54:08;;;;;;;43.65;14.18;;;;;;;-1.86;100.00;102380.16;4991615;28;20113;-76
2021/12/21 01:56:33;;;;;;;41.38;15.27;;;;;;;-1.94;100.00;102376.47;4990632;28;20661;-76
2021/12/21 01:58:59;;;;;;;39.85;15.18;;;;;;;-1.95;100.00;102380.06;4991405;28;20030;-76
2021/12/21 02:01:26;;;;;;;45.30;15.10;;;;;;;-2.03;100.00;102371.00;4996804;28;20519;-76
2021/12/21 02:03:52;;;;;;;43.55;15.05;;;;;;;-2.00;100.00;102381.28;4999814;28;20041;-77
2021/12/21 02:06:24;;;;;;;40.77;14.70;;;;;;;-2.03;100.00;102381.53;4989250;28;20473;-76
2021/12/21 02:08:49;;;;;;;;;;;;;;;-2.05;100.00;102390.47;4992797;28;20068;-77
2021/12/21 02:11:18;;;;;;;36.72;14.85;;;;;;;-2.13;100.00;102388.47;4991585;28;20265;-78
2021/12/21 02:13:48;;;;;;;40.95;13.75;;;;;;;-2.25;100.00;102378.97;5006406;28;20033;-75
2021/12/21 02:16:25;;;;;;;37.10;14.27;;;;;;;-2.25;100.00;102392.09;4991155;28;20064;-77
2021/12/21 02:19:01;;;;;;;36.47;14.48;;;;;;;-2.30;100.00;102394.25;4991330;28;20033;-77
2021/12/21 02:21:38;;;;;;;33.45;13.68;;;;;;;-2.38;100.00;102384.34;5000393;28;20162;-78
2021/12/21 02:24:08;;;;;;;43.88;14.18;;;;;;;-2.46;100.00;102397.28;4989908;28;20037;-78
2021/12/21 02:26:40;;;;;;;38.10;13.73;;;;;;;-2.55;100.00;102388.31;4977913;28;20516;-77
2021/12/21 02:29:15;;;;;;;;;;;;;;;-2.63;100.00;102385.47;4992080;28;21849;-78
2021/12/21 02:31:47;;;;;;;30.55;13.38;;;;;;;-2.69;100.00;102391.22;5006304;28;20028;-78
2021/12/21 02:34:19;;;;;;;36.45;15.73;;;;;;;-2.75;100.00;102385.63;4990394;28;20485;-78
2021/12/21 02:36:48;;;;;;;43.90;14.40;;;;;;;-2.76;100.00;102389.19;5000649;28;20053;-77
2021/12/21 02:39:17;;;;;;;44.33;14.47;;;;;;;-2.74;100.00;102385.47;4991050;28;20842;-78
2021/12/21 02:41:43;;;;;;;45.22;15.07;;;;;;;-2.75;100.00;102383.81;4989833;28;20041;-75
2021/12/21 02:44:12;;;;;;;43.73;15.67;;;;;;;-2.72;100.00;102373.06;4989134;28;20044;-75
2021/12/21 02:46:39;;;;;;;46.00;14.90;;;;;;;-2.72;100.00;102380.09;4990589;28;20033;-78
2021/12/21 02:49:08;;;;;;;39.00;14.80;;;;;;;-2.68;100.00;102384.19;5005512;28;20045;-78
2021/12/21 02:51:34;;;;;;;33.60;14.20;;;;;;;-2.75;100.00;102381.19;4999917;28;20505;-76
2021/12/21 02:54:01;;;;;;;38.30;14.13;;;;;;;-2.84;100.00;102377.50;4996476;28;20492;-76
2021/12/21 02:56:29;;;;;;;44.77;15.17;;;;;;;-2.85;100.00;102377.63;4990677;28;20148;-76
2021/12/21 02:58:55;;;;;;;46.47;15.23;;;;;;;-2.87;100.00;102385.59;4990697;28;20022;-77
2021/12/21 03:01:21;;;;;;;41.17;13.97;;;;;;;-2.90;100.00;102375.34;4990056;28;21835;-77
2021/12/21 03:03:47;;;;;;;39.80;14.37;;;;;;;-2.88;100.00;102375.22;4989043;28;20108;-78
2021/12/21 03:06:34;;;;;;;42.23;14.30;;;;;;;-2.91;100.00;102370.22;4990691;28;20052;-76
2021/12/21 03:08:58;;;;;;;43.77;15.80;;;;;;;-2.88;100.00;102369.97;4990707;28;20061;-76
2021/12/21 03:11:47;;;;;;;38.03;14.83;;;;;;;-2.90;100.00;102366.63;4990751;28;20051;-75
2021/12/21 03:14:15;;;;;;;42.47;14.17;;;;;;;-2.92;100.00;102363.28;4990466;28;20120;-77
2021/12/21 03:16:41;;;;;;;41.00;14.57;;;;;;;-2.92;100.00;102364.13;4990855;28;20520;-77
2021/12/21 03:19:09;;;;;;;38.43;14.50;;;;;;;-2.97;100.00;102357.56;5005067;28;20171;-77
2021/12/21 03:21:36;;;;;;;41.23;14.47;;;;;;;-2.86;100.00;102362.78;4999071;28;20548;-77
2021/12/21 03:24:06;;;;;;;39.07;15.53;;;;;;;-2.75;100.00;102362.81;4996850;28;20703;-78
2021/12/21 03:26:31;;;;;;;44.20;15.93;;;;;;;-2.74;100.00;102361.00;4994533;28;20057;-77
2021/12/21 03:28:57;;;;;;;41.20;15.20;;;;;;;-2.61;100.00;102365.19;4988538;28;20579;-77
2021/12/21 03:31:23;;;;;;;38.00;16.63;;;;;;;-2.55;100.00;102351.53;4991425;28;20029;-75
2021/12/21 03:33:48;;;;;;;44.55;16.10;;;;;;;-2.47;100.00;102357.97;4990313;28;20033;-77
2021/12/21 03:36:16;;;;;;;34.80;15.70;;;;;;;-2.57;100.00;102355.25;4989433;28;20081;-78
2021/12/21 03:38:52;;;;;;;34.33;14.77;;;;;;;-2.52;100.00;102365.41;4991001;28;20030;-78
2021/12/21 03:41:20;;;;;;;44.17;15.27;;;;;;;-2.46;100.00;102364.91;4990686;28;20120;-78
2021/12/21 03:43:46;;;;;;;38.73;14.47;;;;;;;-2.40;100.00;102360.00;4989285;28;20058;-78
2021/12/21 03:46:15;;;;;;;41.30;15.20;;;;;;;-2.43;100.00;102360.25;4989748;28;20063;-78
2021/12/21 03:48:45;;;;;;;37.22;15.25;;;;;;;-2.45;100.00;102361.31;4994476;28;20712;-78
2021/12/21 03:51:14;;;;;;;43.10;16.43;;;;;;;-2.42;100.00;102354.03;4989192;28;20068;-78
2021/12/21 03:53:44;;;;;;;40.33;16.03;;;;;;;-2.23;100.00;102365.69;4990980;28;22022;-78
2021/12/21 03:59:07;;;;;;;40.75;14.82;;;;;;;-1.92;100.00;102343.81;4989017;28;20080;-78
2021/12/21 04:01:35;;;;;;;39.90;14.98;;;;;;;-1.93;100.00;102342.16;4993500;28;20519;-77
2021/12/21 04:04:03;;;;;;;46.25;15.50;;;;;;;-1.93;100.00;102341.31;4993268;28;20484;-77
2021/12/21 04:06:29;;;;;;;43.05;15.73;;;;;;;-1.93;100.00;102342.16;4993562;28;20124;-77
2021/12/21 04:08:54;;;;;;;49.30;14.70;;;;;;;-1.80;100.00;102336.69;4999813;28;20038;-75
2021/12/21 04:11:20;;;;;;;41.67;15.10;;;;;;;-1.82;100.00;102346.53;4996760;28;20180;-77
2021/12/21 04:13:45;;;;;;;35.55;13.32;;;;;;;-1.98;100.00;102325.91;4993569;28;20034;-76
2021/12/21 04:16:13;;;;;;;38.22;13.80;;;;;;;-1.98;100.00;102346.94;4995142;28;20255;-77
2021/12/21 04:18:39;;;;;;;39.05;13.10;;;;;;;-2.11;100.00;102344.50;4994470;28;20030;-76
2021/12/21 04:21:08;;;;;;;40.70;13.80;;;;;;;-2.29;100.00;102320.53;4995485;28;20587;-77
2021/12/21 04:23:34;;;;;;;38.25;12.20;;;;;;;-2.25;100.00;102347.41;4992823;28;20482;-77
2021/12/21 04:26:00;;;;;;;32.70;12.15;;;;;;;-2.35;100.00;102342.06;4994204;28;20132;-77
2021/12/21 04:28:26;;;;;;;31.98;11.55;;;;;;;-2.32;100.00;102346.25;4995061;28;20038;-77
2021/12/21 04:30:52;;;;;;;30.25;11.55;;;;;;;-2.32;100.00;102346.25;4994234;28;22371;-77
2021/12/21 04:33:20;;;;;;;35.97;11.17;;;;;;;-2.39;100.00;102353.78;4993477;28;20040;-76
2021/12/21 04:35:48;;;;;;;37.88;12.95;;;;;;;-2.47;100.00;102342.22;4996946;28;20199;-77
2021/12/21 04:38:26;;;;;;;34.73;12.50;;;;;;;-2.52;100.00;102344.38;4991800;28;20136;-77
2021/12/21 04:41:01;;;;;;;31.05;12.00;;;;;;;-2.53;100.00;102340.91;4993907;28;20026;-77
2021/12/21 04:43:26;;;;;;;33.60;12.57;;;;;;;-2.55;100.00;102334.94;4993266;28;20484;-77
2021/12/21 04:45:52;;;;;;;28.67;11.27;;;;;;;-2.61;100.00;102336.28;5007884;28;20292;-76
2021/12/21 04:48:18;;;;;;;31.77;12.33;;;;;;;-2.60;100.00;102337.13;4993038;28;20092;-77
2021/12/21 04:50:46;;;;;;;32.07;12.07;;;;;;;-2.69;100.00;102332.56;4991834;28;21956;-77
2021/12/21 04:53:11;;;;;;;28.60;12.57;;;;;;;-2.72;100.00;102330.19;4995514;28;20581;-77
2021/12/21 04:55:40;;;;;;;36.40;13.33;;;;;;;-2.65;100.00;102326.97;4992868;28;20148;-77
2021/12/21 04:58:06;;;;;;;27.45;12.57;;;;;;;-2.68;100.00;102319.34;4996591;28;20359;-76
2021/12/21 05:00:32;;;;;;;33.10;13.27;;;;;;;-2.64;100.00;102320.75;4993346;28;20096;-77
2021/12/21 05:02:58;;;;;;;36.40;14.10;;;;;;;-2.61;100.00;102331.03;5001796;28;20034;-77
2021/12/21 05:05:23;;;;;;;32.70;13.88;;;;;;;-2.57;100.00;102321.94;4992922;28;20037;-77
2021/12/21 05:08:04;;;;;;;30.57;13.13;;;;;;;-2.50;100.00;102334.59;5006191;28;20044;-77
2021/12/21 05:10:30;;;;;;;38.83;13.37;;;;;;;-2.39;100.00;102319.59;5005472;28;20057;-77
2021/12/21 05:12:58;;;;;;;42.42;14.30;;;;;;;-2.38;100.00;102315.19;4996011;28;20200;-77
2021/12/21 05:15:23;;;;;;;29.23;12.40;;;;;;;-2.49;100.00;102318.69;4991975;28;20211;-77
2021/12/21 05:17:49;;;;;;;33.00;12.47;;;;;;;-2.67;100.00;102321.00;4991824;28;20806;-77
2021/12/21 05:20:15;;;;;;;31.47;12.77;;;;;;;-2.73;100.00;102313.59;4991885;28;20075;-76
2021/12/21 05:22:41;;;;;;;32.08;14.02;;;;;;;-2.84;100.00;102300.50;4997585;28;20050;-77
2021/12/21 05:25:09;;;;;;;32.03;13.18;;;;;;;-2.79;100.00;102311.44;4992135;28;20515;-77
2021/12/21 05:27:36;;;;;;;33.00;13.37;;;;;;;-2.96;100.00;102309.31;4985116;28;20037;-77
2021/12/21 05:30:05;;;;;;;34.47;14.37;;;;;;;-2.83;100.00;102323.16;4992128;28;20244;-77
2021/12/21 05:32:32;;;;;;;32.30;13.43;;;;;;;-2.93;100.00;102319.59;4991819;28;20792;-71
2021/12/21 05:34:58;;;;;;;29.00;13.90;;;;;;;-2.99;100.00;102327.97;4991957;28;20190;-71
2021/12/21 05:37:24;;;;;;;38.23;14.10;;;;;;;-3.04;100.00;102330.09;4992007;28;20040;-72
2021/12/21 05:40:10;;;;;;;35.67;13.60;;;;;;;-3.02;100.00;102321.13;4991838;28;20080;-71
2021/12/21 05:42:38;;;;;;;30.63;13.63;;;;;;;-3.15;100.00;102307.31;4992554;28;20025;-70
2021/12/21 05:45:04;;;;;;;32.93;13.60;;;;;;;-3.13;100.00;102318.53;4991615;28;20522;-70
2021/12/21 05:47:30;;;;;;;32.03;13.87;;;;;;;-3.20;100.00;102323.41;4992887;28;20029;-70
2021/12/21 05:49:55;;;;;;;36.50;15.07;;;;;;;-3.25;100.00;102325.56;4999359;28;20107;-72
2021/12/21 05:52:21;;;;;;;34.43;14.23;;;;;;;-3.30;100.00;102326.88;4991896;28;20052;-70
2021/12/21 05:54:49;;;;;;;41.27;16.43;;;;;;;-3.29;100.00;102334.63;4990764;28;20033;-70
2021/12/21 05:57:16;;;;;;;37.30;15.47;;;;;;;-3.25;100.00;102346.56;4992089;28;20033;-70
2021/12/21 05:59:42;;;;;;;40.43;14.97;;;;;;;-3.27;100.00;102337.94;4990639;28;20061;-70
2021/12/21 06:02:08;;;;;;;38.43;16.03;;;;;;;-3.24;100.00;102343.00;4990662;28;20033;-70
2021/12/21 06:04:34;;;;;;;37.73;16.07;;;;;;;-3.24;100.00;102343.00;4991114;28;20037;-70
2021/12/21 06:07:01;;;;;;;42.27;16.80;;;;;;;-3.22;100.00;102346.31;5006065;28;20033;-72
2021/12/21 06:09:30;;;;;;;48.03;18.03;;;;;;;-3.20;100.00;102339.16;4991959;28;20033;-70
2021/12/21 06:23:39;;;;;;;47.87;19.83;;;;;;;-3.18;100.00;102337.28;4989342;28;20046;-70
2021/12/21 06:26:07;;;;;;;46.97;19.70;;;;;;;-3.15;100.00;102337.03;4991432;28;20473;-72
2021/12/21 06:28:36;;;;;;;55.43;20.17;;;;;;;-3.17;100.00;102333.69;4989734;28;20132;-72
2021/12/21 06:31:04;;;;;;;56.10;19.43;;;;;;;-3.18;100.00;102336.41;4980874;28;22208;-70
2021/12/21 06:33:30;;;;;;;42.23;18.37;;;;;;;-3.25;100.00;102329.97;5005745;28;20378;-72
2021/12/21 06:35:58;;;;;;;44.13;18.20;;;;;;;-3.24;100.00;102335.13;4991682;28;20056;-72
2021/12/21 06:38:25;;;;;;;41.40;17.93;;;;;;;-3.32;100.00;102319.13;4990676;28;20037;-72
2021/12/21 06:40:53;;;;;;;48.03;17.00;;;;;;;-3.25;100.00;102333.44;4991161;28;20035;-73
2021/12/21 06:43:18;;;;;;;33.70;14.10;;;;;;;-3.31;100.00;102325.19;4990539;28;20230;-70
2021/12/21 06:45:49;;;;;;;38.20;13.40;;;;;;;-3.27;100.00;102343.19;4988081;28;20029;-70
2021/12/21 06:53:39;;;;;;;34.57;12.80;;;;;;;-3.23;100.00;102334.16;4999138;28;20452;-72
2021/12/21 06:56:09;;;;;;;31.33;12.13;;;;;;;-3.16;100.00;102335.34;5004787;28;20038;-72
2021/12/21 06:58:34;;;;;;;26.70;11.17;;;;;;;-3.25;100.00;102330.81;4989885;28;20079;-72
2021/12/21 07:01:01;;;;;;;25.87;10.73;;;;;;;-3.25;100.00;102336.06;4997281;28;20621;-72
2021/12/21 07:03:29;;;;;;;27.77;10.53;;;;;;;-3.25;100.00;102341.31;4996083;28;20428;-72
2021/12/21 07:05:57;;;;;;;26.47;9.80;;;;;;;-3.29;100.00;102339.88;4991628;28;20132;-72
2021/12/21 07:08:30;;;;;;;26.00;9.43;;;;;;;-3.32;100.00;102337.50;4999227;28;20026;-72
2021/12/21 07:11:11;;;;;;;30.20;10.13;;;;;;;-3.36;100.00;102343.06;4990357;28;20498;-73
2021/12/21 07:19:10;;;;;;;26.30;9.53;;;;;;;-3.53;100.00;102347.81;4989827;28;20057;-78
2021/12/21 07:21:38;;;;;;;26.83;10.17;;;;;;;-3.54;100.00;102350.56;4996120;28;20143;-78
2021/12/21 07:24:06;;;;;;;26.03;10.30;;;;;;;-3.53;100.00;102344.38;4999776;28;20135;-78
2021/12/21 07:26:32;;;;;;;22.53;10.17;;;;;;;-3.51;100.00;102355.56;5004619;28;20045;-78
2021/12/21 07:28:58;;;;;;;23.20;9.83;;;;;;;-3.56;100.00;102355.09;4990716;28;20068;-78
2021/12/21 07:31:24;;;;;;;33.30;10.53;;;;;;;-3.62;100.00;102347.69;4992760;28;20697;-78
2021/12/21 07:33:54;;;;;;;28.63;10.50;;;;;;;-3.59;100.00;102343.03;4999079;28;20036;-78
2021/12/21 07:36:19;;;;;;;23.40;9.73;;;;;;;-3.59;100.00;102353.53;5002711;28;20289;-78
2021/12/21 07:38:45;;;;;;;22.70;9.63;;;;;;;-3.61;100.00;102349.34;4997835;28;20038;-78
2021/12/21 07:41:15;;;;;;;32.20;11.17;;;;;;;-3.70;100.00;102349.09;4991685;28;20372;-77
2021/12/21 07:43:41;;;;;;;31.30;12.40;;;;;;;-3.71;100.00;102347.41;5007525;28;20036;-77
2021/12/21 07:46:06;;;;;;;32.20;12.90;;;;;;;-3.62;100.00;102350.31;4994203;28;20033;-77
2021/12/21 07:48:32;;;;;;;33.67;13.27;;;;;;;-3.72;100.00;102337.88;4996980;28;20026;-76
2021/12/21 07:50:57;;;;;;;32.17;14.50;;;;;;;-3.65;100.00;102353.16;4995009;28;20033;-78
2021/12/21 07:53:23;;;;;;;30.03;13.40;;;;;;;-3.59;100.00;102361.38;4992709;28;20037;-78
2021/12/21 07:55:52;;;;;;;32.50;12.67;;;;;;;-3.65;100.00;102350.53;4996412;28;20041;-77
2021/12/21 07:58:17;;;;;;;38.07;13.90;;;;;;;-3.45;100.00;102370.84;4993662;28;20091;-77
2021/12/21 08:00:43;;;;;;;33.23;12.77;;;;;;;-3.43;100.00;102380.28;5009935;28;20041;-77
2021/12/21 08:03:15;;;;;;;30.50;12.03;;;;;;;-3.42;100.00;102373.25;4997105;28;20072;-77
2021/12/21 08:05:40;;;;;;;32.43;12.20;;;;;;;-3.38;100.00;102377.31;4993969;28;20033;-77
2021/12/21 08:08:17;;;;;;;28.00;12.30;;;;;;;-3.36;100.00;102370.16;4990396;28;20044;-77
2021/12/21 08:10:51;;;;;;;31.70;12.30;;;;;;;-3.27;100.00;102379.94;5009600;28;20056;-77
2021/12/21 08:13:17;;;;;;;33.93;13.13;;;;;;;-3.28;100.00;102375.66;4993547;28;20422;-77
2021/12/21 08:15:45;;;;;;;44.17;12.90;;;;;;;-3.19;100.00;102374.94;5003164;28;20284;-77
2021/12/21 08:18:11;;;;;;;39.20;11.93;;;;;;;-3.20;100.00;102365.41;5008066;28;20076;-77
2021/12/21 08:20:40;;;;;;;33.23;12.20;;;;;;;-3.12;100.00;102368.28;4991740;28;20053;-78
2021/12/21 08:23:06;;;;;;;30.20;11.33;;;;;;;-3.09;100.00;102366.41;4993783;28;20493;-76
2021/12/21 08:25:36;;;;;;;28.73;10.67;;;;;;;-3.07;100.00;102357.44;4991167;28;20091;-77
2021/12/21 08:28:06;;;;;;;31.70;11.90;;;;;;;-3.11;100.00;102343.69;4995711;28;20091;-77
2021/12/21 08:30:33;;;;;;;43.10;12.60;;;;;;;-2.97;100.00;102370.69;4995816;28;20382;-74
2021/12/21 08:32:58;;;;;;;33.13;11.13;;;;;;;-2.98;100.00;102364.59;5001947;28;20107;-76
2021/12/21 08:35:24;;;;;;;31.60;10.73;;;;;;;-2.89;100.00;102368.28;4992321;28;20225;-75
2021/12/21 08:37:59;;;;;;;32.20;11.43;;;;;;;-2.98;100.00;102348.00;4993231;28;20417;-76
2021/12/21 08:40:36;;;;;;;34.57;10.53;;;;;;;-2.85;100.00;102356.59;4999131;28;20710;-77
2021/12/21 08:43:06;;;;;;;35.93;9.90;;;;;;;-2.79;100.00;102363.16;4999025;28;20026;-77
2021/12/21 08:45:33;;;;;;;27.50;10.70;;;;;;;-2.75;100.00;102360.19;4985586;28;20048;-76
2021/12/21 08:48:01;;;;;;;32.10;10.83;;;;;;;-2.78;100.00;102355.16;4991454;28;20465;-77
2021/12/21 08:50:27;;;;;;;37.40;14.02;;;;;;;-2.69;100.00;102354.44;5008430;28;20076;-77
2021/12/21 08:52:52;;;;;;;41.33;14.77;;;;;;;-2.58;100.00;102359.66;4993482;28;20481;-78
2021/12/21 08:55:18;;;;;;;40.90;14.00;;;;;;;-2.56;100.00;102355.13;4997033;28;20037;-78
2021/12/21 08:57:44;;;;;;;38.90;14.57;;;;;;;-2.47;100.00;102357.97;4993139;28;20543;-77
2021/12/21 09:00:13;;;;;;;38.97;14.03;;;;;;;-2.40;100.00;102359.16;4993384;28;20030;-77
2021/12/21 09:02:38;;;;;;;41.03;13.17;;;;;;;-2.38;100.00;102367.75;4999245;28;20547;-76
2021/12/21 09:05:12;;;;;;;35.50;11.00;;;;;;;-2.33;100.00;102368.22;4994142;28;20734;-77
2021/12/21 09:07:44;;;;;;;29.93;10.27;;;;;;;-2.21;100.00;102364.59;4998072;28;20040;-77
2021/12/21 09:10:14;;;;;;;27.07;8.73;;;;;;;-2.05;100.00;102351.88;4993750;28;20034;-75
2021/12/21 09:12:40;;;;;;;23.95;8.57;;;;;;;-1.90;100.00;102346.31;4999219;28;20040;-77
2021/12/21 09:15:07;;;;;;;17.92;7.55;;;;;;;-1.80;100.00;102357.75;5000463;28;20025;-76
2021/12/21 09:17:33;;;;;;;23.00;7.38;;;;;;;-1.75;100.00;102366.09;4993544;28;20125;-76
2021/12/21 09:19:58;;;;;;;25.00;7.35;;;;;;;-1.71;100.00;102367.53;5008533;28;20033;-76
2021/12/21 09:22:25;;;;;;;23.10;7.50;;;;;;;-1.67;100.00;102384.72;4991779;28;20235;-76
2021/12/21 09:24:53;;;;;;;17.77;6.93;;;;;;;-1.56;100.00;102394.34;5007268;28;20575;-76
2021/12/21 09:27:19;;;;;;;17.27;6.82;;;;;;;-1.50;100.00;102402.59;4993446;28;20042;-77
2021/12/21 09:29:45;;;;;;;17.42;5.78;;;;;;;-1.56;100.00;102371.50;4997304;28;20494;-76
2021/12/21 09:32:13;;;;;;;19.08;6.30;;;;;;;-1.39;100.00;102382.41;5000019;28;20030;-78
2021/12/21 09:34:42;;;;;;;21.88;7.88;;;;;;;-1.33;100.00;102389.81;4992679;28;20191;-77
2021/12/21 09:37:14;;;;;;;19.67;6.40;;;;;;;-1.25;100.00;102390.00;4981578;28;20661;-77
2021/12/21 09:39:54;;;;;;;12.55;4.97;;;;;;;-1.10;100.00;102401.88;5006093;28;20119;-77
2021/12/21 09:42:22;;;;;;;24.55;5.93;;;;;;;-1.03;100.00;102399.56;5001699;28;20934;-77
2021/12/21 09:44:48;;;;;;;18.40;5.97;;;;;;;-0.93;100.00;102393.34;4992251;28;20134;-77
2021/12/21 09:47:17;;;;;;;18.02;6.03;;;;;;;-0.88;100.00;102388.53;4990564;28;20499;-77
2021/12/21 09:49:44;;;;;;;25.30;9.38;;;;;;;-0.78;100.00;102382.47;5006154;28;20141;-77
2021/12/21 09:52:14;;;;;;;26.55;9.38;;;;;;;-0.66;100.00;102376.13;4996040;28;20416;-76
2021/12/21 09:54:40;;;;;;;18.23;6.65;;;;;;;-0.64;100.00;102374.22;4984408;28;20041;-76
2021/12/21 09:57:07;;;;;;;16.85;6.35;;;;;;;-0.60;100.00;102376.41;4999533;28;20030;-76
2021/12/21 09:59:33;;;;;;;25.52;9.15;;;;;;;-0.52;100.00;102378.38;4989863;28;20670;-76
2021/12/21 10:02:02;;;;;;;14.93;6.65;;;;;;;-0.39;100.00;102378.16;4991809;28;20037;-76
2021/12/21 10:04:28;;;;;;;20.02;6.75;;;;;;;-0.35;100.00;102359.28;4991258;28;20099;-76
2021/12/21 10:06:57;;;;;;;13.30;4.35;;;;;;;-0.23;100.00;102372.34;4995108;28;20494;-76
2021/12/21 10:09:31;;;;;;;12.48;4.60;;;;;;;-0.19;100.00;102365.81;4996377;28;20029;-77
2021/12/21 10:11:57;;;;;;;13.82;5.40;;;;;;;-0.20;100.00;102365.00;5005919;28;20033;-77
2021/12/21 10:14:25;;;;;;;15.50;6.35;;;;;;;-0.10;100.00;102372.91;5006696;28;20526;-77
2021/12/21 10:17:06;;;;;;;18.00;5.75;;;;;;;-0.05;100.00;102370.72;4997021;28;20026;-76
2021/12/21 10:19:35;;;;;;;15.27;6.80;;;;;;;-0.03;100.00;102374.03;4999878;28;20041;-77
2021/12/21 10:22:14;;;;;;;15.13;6.93;;;;;;;-0.06;100.00;102358.50;4990760;28;20049;-75
2021/12/21 10:24:49;;;;;;;20.42;8.02;;;;;;;0.04;100.00;102372.50;4990830;28;20079;-75
2021/12/21 10:27:19;;;;;;;16.30;5.32;;;;;;;0.09;100.00;102370.31;4992119;28;20039;-77
2021/12/21 10:29:52;;;;;;;20.55;5.35;;;;;;;0.20;100.00;102366.69;4996431;28;20144;-77
2021/12/21 10:32:20;;;;;;;21.17;5.47;;;;;;;0.25;100.00;102364.47;4991574;28;20029;-76
2021/12/21 10:34:54;;;;;;;18.05;4.07;;;;;;;0.30;100.00;102369.31;4992890;28;20029;-75
2021/12/21 10:37:28;;;;;;;15.10;4.32;;;;;;;0.24;100.00;102354.84;5007552;28;20582;-75
2021/12/21 10:40:12;;;;;;;11.75;4.13;;;;;;;0.31;100.00;102365.69;5006544;28;20060;-75
2021/12/21 10:42:46;;;;;;;14.18;5.25;;;;;;;0.33;100.00;102363.78;4990988;28;20041;-75
2021/12/21 10:45:11;;;;;;;15.95;5.75;;;;;;;0.34;100.00;102357.50;4990643;28;20397;-75
2021/12/21 10:47:37;;;;;;;17.58;5.60;;;;;;;0.42;100.00;102347.91;5005331;28;20040;-75
2021/12/21 10:50:05;;;;;;;21.13;6.68;;;;;;;0.41;100.00;102351.53;4992436;28;20026;-75
2021/12/21 10:52:31;;;;;;;15.20;5.22;;;;;;;0.47;100.00;102352.75;4999295;28;20029;-74
2021/12/21 10:54:59;;;;;;;14.15;5.10;;;;;;;0.60;100.00;102361.22;4991206;28;20064;-75
2021/12/21 10:57:31;;;;;;;23.67;5.95;;;;;;;0.60;100.00;102355.94;4990226;28;20044;-75
2021/12/21 11:00:00;;;;;;;;;;;;;;;0.62;100.00;102348.69;5005684;28;20116;-74
2021/12/21 11:02:32;;;;;;;16.42;5.15;;;;;;;0.65;100.00;102355.50;4998941;28;20352;-75
2021/12/21 11:05:04;;;;;;;16.00;5.20;;;;;;;0.65;100.00;102360.78;4994311;28;20033;-74
2021/12/21 11:07:43;;;;;;;17.48;5.15;;;;;;;0.63;100.00;102357.44;5005733;28;20509;-74
2021/12/21 11:10:26;;;;;;;16.27;5.10;;;;;;;0.59;100.00;102354.28;5004634;28;20041;-75
2021/12/21 11:13:04;;;;;;;12.40;4.80;;;;;;;0.59;100.00;102353.44;4990194;28;20052;-75
2021/12/21 11:15:36;;;;;;;14.13;5.10;;;;;;;0.60;100.00;102355.09;4998039;28;20114;-74
2021/12/21 11:18:07;;;;;;;16.02;6.93;;;;;;;0.61;100.00;102348.84;5005732;28;20556;-74
2021/12/21 11:20:35;;;;;;;17.80;5.70;;;;;;;0.62;100.00;102351.34;4990397;28;20465;-73
2021/12/21 11:23:00;;;;;;;16.27;6.55;;;;;;;0.61;100.00;102346.19;4990662;28;20057;-74
2021/12/21 11:25:29;;;;;;;19.25;5.57;;;;;;;0.61;100.00;102340.91;4991041;28;20048;-75
2021/12/21 11:27:55;;;;;;;16.13;6.38;;;;;;;0.61;100.00;102339.09;4996653;28;20038;-79
2021/12/21 11:30:24;;;;;;;18.50;6.45;;;;;;;0.61;100.00;102339.09;4990615;28;20161;-79
2021/12/21 11:32:53;;;;;;;15.02;5.15;;;;;;;0.64;100.00;102330.88;4999873;28;20393;-78
2021/12/21 11:38:00;;;;;;;22.02;6.70;;;;;;;0.75;100.00;102328.09;4990337;28;20438;-76
2021/12/21 11:40:31;;;;;;;13.20;6.50;;;;;;;0.71;100.00;102326.69;4990769;28;20552;-77
2021/12/21 11:43:06;;;;;;;23.35;8.82;;;;;;;0.75;100.00;102328.09;4992690;28;20637;-76
2021/12/21 11:45:39;;;;;;;16.45;7.38;;;;;;;0.75;100.00;102316.69;4995778;28;21900;-76
2021/12/21 11:48:10;;;;;;;13.73;5.45;;;;;;;0.77;100.00;102326.13;4987889;28;20053;-77
2021/12/21 11:50:44;;;;;;;22.88;8.00;;;;;;;0.80;100.00;102317.91;4990288;28;20120;-77
2021/12/21 11:53:13;;;;;;;15.90;6.35;;;;;;;0.82;100.00;102323.91;4990894;28;21141;-76
2021/12/21 11:55:42;;;;;;;14.65;6.38;;;;;;;0.81;100.00;102309.03;4991143;28;20358;-74
2021/12/21 11:58:26;;;;;;;15.50;6.60;;;;;;;0.84;100.00;102306.09;4992485;28;20537;-73
2021/12/21 12:01:01;;;;;;;16.98;7.00;;;;;;;0.89;100.00;102302.16;4991283;28;20713;-76
2021/12/21 12:03:27;;;;;;;;;;;;;;;0.86;100.00;102302.47;5005161;28;20152;-76
2021/12/21 12:06:03;;;;;;;16.77;6.35;;;;;;;0.83;100.00;102291.22;4997117;28;19980;-76